Time;durP1;ratioP1;P1;durP2;ratioP2;P2;SDS_P1;SDS_P2;PMS_P1;PMS_P2;Temp;Humidity;BMP_temperature;BMP_pressure;BME280_temperature;BME280_humidity;BME280_pressure;Samples;Min_cycle;Max_cycle;Signal;HPM_P1;HPM_P2
2021/01/11 00:00:11;;;;;;;63.13;29.77;;;-7.30;99.90;;;;;;5062429;28;20044;-76
2021/01/11 00:02:39;;;;;;;62.30;28.23;;;-7.30;99.90;;;;;;5047800;28;20086;-76
2021/01/11 00:05:06;;;;;;;63.55;29.90;;;-7.30;99.90;;;;;;5053086;28;20044;-76
2021/01/11 00:07:33;;;;;;;59.03;27.70;;;-7.30;99.90;;;;;;5046342;28;20137;-74
2021/01/11 00:09:59;;;;;;;59.80;29.88;;;-7.30;99.90;;;;;;5064506;28;20048;-75
2021/01/11 00:12:26;;;;;;;70.60;30.38;;;-7.40;99.90;;;;;;5059060;28;20045;-76
2021/01/11 00:14:52;;;;;;;66.78;29.60;;;-7.40;99.90;;;;;;5046419;28;20048;-76
2021/01/11 00:17:19;;;;;;;70.32;31.13;;;-7.40;99.90;;;;;;5064801;28;20056;-77
2021/01/11 00:19:52;;;;;;;68.95;30.55;;;-7.40;99.90;;;;;;5065834;28;20052;-76
2021/01/11 00:22:22;;;;;;;63.92;29.73;;;-7.40;99.90;;;;;;5063181;28;20518;-76
2021/01/11 00:24:48;;;;;;;63.22;29.95;;;-7.40;99.90;;;;;;5055646;28;20561;-76
2021/01/11 00:27:15;;;;;;;56.55;28.20;;;-7.40;99.90;;;;;;5064862;28;20044;-76
2021/01/11 00:29:41;;;;;;;64.68;27.45;;;-7.50;99.90;;;;;;5065225;28;20097;-75
2021/01/11 00:32:08;;;;;;;61.13;26.95;;;-7.50;99.90;;;;;;5047106;28;20106;-77
2021/01/11 00:34:34;;;;;;;56.63;27.25;;;-7.50;99.90;;;;;;5061887;28;20044;-75
2021/01/11 00:37:00;;;;;;;71.47;31.17;;;-7.60;99.90;;;;;;5059255;28;20048;-76
2021/01/11 00:39:28;;;;;;;68.45;29.52;;;-7.60;99.90;;;;;;5063391;28;20052;-76
2021/01/11 00:41:59;;;;;;;69.45;30.65;;;-7.50;99.90;;;;;;5064471;28;20052;-75
2021/01/11 00:44:27;;;;;;;62.65;30.00;;;-7.50;99.90;;;;;;5062833;28;20181;-76
2021/01/11 00:47:04;;;;;;;64.22;28.25;;;-7.50;99.90;;;;;;5047054;28;20110;-75
2021/01/11 00:49:31;;;;;;;66.00;29.92;;;-7.60;99.90;;;;;;5047617;28;20052;-75
2021/01/11 00:51:58;;;;;;;66.82;29.38;;;-7.60;99.90;;;;;;5065002;28;20088;-74
2021/01/11 00:54:24;;;;;;;65.57;29.42;;;-7.60;99.90;;;;;;5049168;28;20064;-76
2021/01/11 00:56:51;;;;;;;70.30;31.00;;;-7.70;99.90;;;;;;5038053;28;20114;-75
2021/01/11 00:59:17;;;;;;;59.85;27.77;;;-7.80;99.90;;;;;;5048057;28;20041;-75
2021/01/11 01:01:54;;;;;;;62.08;31.08;;;-7.80;99.90;;;;;;5060303;28;20084;-75
2021/01/11 01:04:21;;;;;;;69.45;29.83;;;-7.80;99.90;;;;;;5047806;28;20747;-75
2021/01/11 01:06:47;;;;;;;67.05;29.45;;;-7.80;99.90;;;;;;5048871;28;20911;-75
2021/01/11 01:09:14;;;;;;;61.03;29.20;;;-7.80;99.90;;;;;;5059471;28;20663;-75
2021/01/11 01:11:42;;;;;;;61.92;28.13;;;-7.80;99.90;;;;;;5053209;28;20470;-74
2021/01/11 01:14:09;;;;;;;67.38;28.02;;;-7.90;99.90;;;;;;5059536;28;20075;-76
2021/01/11 01:16:36;;;;;;;66.13;29.52;;;-7.90;99.90;;;;;;5064788;28;20084;-75
2021/01/11 01:19:03;;;;;;;70.55;30.25;;;-7.80;99.90;;;;;;5049822;28;20198;-74
2021/01/11 01:21:29;;;;;;;63.67;27.70;;;-7.80;99.90;;;;;;5046679;28;20580;-74
2021/01/11 01:23:56;;;;;;;58.83;28.63;;;-7.90;99.90;;;;;;5046766;28;20132;-74
2021/01/11 01:26:23;;;;;;;61.65;28.58;;;-7.90;99.90;;;;;;5058021;28;20083;-75
2021/01/11 01:28:56;;;;;;;62.70;28.73;;;-7.80;99.90;;;;;;5055835;28;20662;-74
2021/01/11 01:31:22;;;;;;;60.05;26.85;;;-7.90;99.90;;;;;;5050571;28;20620;-75
2021/01/11 01:33:49;;;;;;;60.80;28.08;;;-7.80;99.90;;;;;;5064840;28;20506;-74
2021/01/11 01:36:19;;;;;;;58.63;26.17;;;-7.70;99.90;;;;;;5041225;28;20047;-74
2021/01/11 01:38:46;;;;;;;59.97;25.63;;;-7.80;99.90;;;;;;5052432;28;20044;-75
2021/01/11 01:41:12;;;;;;;55.38;25.95;;;-7.80;99.90;;;;;;5046305;28;20084;-75
2021/01/11 01:43:39;;;;;;;53.95;24.83;;;-7.80;99.90;;;;;;5063349;28;20102;-74
2021/01/11 01:46:07;;;;;;;91.60;37.38;;;-7.90;99.90;;;;;;5045756;28;20092;-74
2021/01/11 01:48:34;;;;;;;66.75;29.30;;;-7.90;99.90;;;;;;5064226;28;20140;-75
2021/01/11 01:51:01;;;;;;;62.78;28.55;;;-7.90;99.90;;;;;;5053516;28;20057;-75
2021/01/11 01:53:27;;;;;;;59.47;25.70;;;-7.90;99.90;;;;;;5048359;28;20036;-75
2021/01/11 01:55:54;;;;;;;62.10;27.38;;;-8.00;99.90;;;;;;5053298;28;20174;-75
2021/01/11 01:58:22;;;;;;;58.55;26.30;;;-8.00;99.90;;;;;;5046287;28;20098;-75
2021/01/11 02:00:48;;;;;;;57.20;25.52;;;-8.10;99.90;;;;;;5054463;28;20049;-75
2021/01/11 02:03:15;;;;;;;61.17;27.35;;;-8.10;99.90;;;;;;5063418;28;20048;-74
2021/01/11 02:05:41;;;;;;;52.00;25.00;;;-8.10;99.90;;;;;;5064287;28;20105;-75
2021/01/11 02:08:33;;;;;;;53.05;24.67;;;-8.10;99.90;;;;;;5052018;28;20472;-76
2021/01/11 02:11:06;;;;;;;56.55;25.80;;;-8.10;99.90;;;;;;5044530;28;20151;-75
2021/01/11 02:13:32;;;;;;;;;;;-8.10;99.90;;;;;;5049052;28;20655;-76
2021/01/11 02:16:29;;;;;;;56.63;23.60;;;-8.10;99.90;;;;;;5050794;28;19966;-74
2021/01/11 02:19:17;;;;;;;49.67;22.38;;;-8.10;99.90;;;;;;5064405;28;20129;-75
2021/01/11 02:22:07;;;;;;;56.22;23.48;;;-8.10;99.90;;;;;;5037846;28;20126;-74
2021/01/11 02:24:51;;;;;;;54.08;23.33;;;-8.00;99.90;;;;;;5053764;28;20146;-74
2021/01/11 02:27:27;;;;;;;50.80;23.02;;;-8.00;99.90;;;;;;5067510;28;20634;-74
2021/01/11 02:30:08;;;;;;;53.38;22.50;;;-7.90;99.90;;;;;;5059734;28;20531;-74
2021/01/11 02:32:41;;;;;;;50.78;23.27;;;-8.00;99.90;;;;;;5064281;28;20047;-75
2021/01/11 02:35:10;;;;;;;49.42;21.80;;;-8.00;99.90;;;;;;5067933;28;20045;-75
2021/01/11 02:37:40;;;;;;;56.40;22.73;;;-8.10;99.90;;;;;;5060741;28;20088;-74
2021/01/11 02:40:09;;;;;;;51.70;23.88;;;-8.20;99.90;;;;;;5058860;28;20145;-75
2021/01/11 02:42:35;;;;;;;57.05;23.48;;;-8.30;99.90;;;;;;5054780;28;20124;-76
2021/01/11 02:45:05;;;;;;;50.47;22.92;;;-8.40;99.90;;;;;;5063135;28;20037;-75
2021/01/11 02:47:37;;;;;;;43.13;20.48;;;-8.40;99.90;;;;;;5056768;28;20127;-75
2021/01/11 02:50:05;;;;;;;43.95;20.25;;;-8.30;99.90;;;;;;5067890;28;20067;-74
2021/01/11 02:52:42;;;;;;;43.50;20.00;;;-8.40;99.90;;;;;;5064728;28;20651;-75
2021/01/11 02:55:25;;;;;;;50.40;21.48;;;-8.50;99.90;;;;;;5067443;28;20102;-75
2021/01/11 02:58:02;;;;;;;41.53;19.33;;;-8.50;99.90;;;;;;5049792;28;20052;-75
2021/01/11 03:00:35;;;;;;;49.65;22.67;;;-8.50;99.90;;;;;;5061214;28;20052;-75
2021/01/11 03:03:05;;;;;;;58.20;24.80;;;-8.40;99.90;;;;;;5067508;28;20179;-75
2021/01/11 03:05:32;;;;;;;54.10;24.73;;;-8.40;99.90;;;;;;5067575;28;20048;-75
2021/01/11 03:07:59;;;;;;;55.05;24.95;;;-8.30;99.90;;;;;;5060248;28;20048;-74
2021/01/11 03:10:25;;;;;;;64.72;27.25;;;-8.30;99.90;;;;;;5050198;28;20128;-75
2021/01/11 03:12:52;;;;;;;53.92;23.25;;;-8.20;99.90;;;;;;5055148;28;20080;-75
2021/01/11 03:15:19;;;;;;;54.92;24.10;;;-8.30;99.90;;;;;;5048700;28;20119;-75
2021/01/11 03:17:46;;;;;;;62.90;25.98;;;-8.30;99.90;;;;;;5035565;28;20079;-74
2021/01/11 03:20:13;;;;;;;52.80;24.65;;;-8.30;99.90;;;;;;5067236;28;20120;-74
2021/01/11 03:22:39;;;;;;;60.00;25.25;;;-8.40;99.90;;;;;;5067469;28;20123;-74
2021/01/11 03:25:07;;;;;;;55.10;23.83;;;-8.50;99.90;;;;;;5066863;28;20105;-75
2021/01/11 03:27:33;;;;;;;51.63;23.35;;;-8.50;99.90;;;;;;5066347;28;20110;-74
2021/01/11 03:30:00;;;;;;;51.40;23.60;;;-8.50;99.90;;;;;;5066722;28;20048;-74
2021/01/11 03:32:27;;;;;;;51.15;22.55;;;-8.60;99.90;;;;;;5051408;28;20091;-75
2021/01/11 03:34:53;;;;;;;55.45;24.38;;;-8.50;99.90;;;;;;5067519;28;20503;-74
2021/01/11 03:37:19;;;;;;;55.35;23.15;;;-8.50;99.90;;;;;;5066604;28;20041;-75
2021/01/11 03:39:46;;;;;;;56.55;24.55;;;-8.40;99.90;;;;;;5066075;28;20044;-74
2021/01/11 03:42:12;;;;;;;52.25;23.77;;;-8.50;99.90;;;;;;5054777;28;20502;-75
2021/01/11 03:44:39;;;;;;;51.78;23.92;;;-8.50;99.90;;;;;;5049806;28;20498;-75
2021/01/11 03:47:05;;;;;;;52.00;22.90;;;-8.60;99.90;;;;;;5055793;28;20110;-75
2021/01/11 03:49:32;;;;;;;55.67;25.15;;;-8.60;99.90;;;;;;5066578;28;20056;-75
2021/01/11 03:52:02;;;;;;;57.13;26.25;;;-8.50;99.90;;;;;;5067005;28;20503;-74
2021/01/11 03:54:29;;;;;;;61.50;24.38;;;-8.40;99.90;;;;;;5066091;28;20317;-74
2021/01/11 03:56:56;;;;;;;57.58;23.85;;;-8.40;99.90;;;;;;5066140;28;20060;-74
2021/01/11 03:59:23;;;;;;;56.63;24.90;;;-8.50;99.90;;;;;;5043466;28;20606;-74
2021/01/11 04:01:49;;;;;;;54.45;24.30;;;-8.50;99.90;;;;;;5065421;28;20114;-75
2021/01/11 04:04:16;;;;;;;56.58;23.55;;;-8.50;99.90;;;;;;5057260;28;20053;-75
2021/01/11 04:06:42;;;;;;;53.17;21.75;;;-8.40;99.90;;;;;;5066463;28;20053;-75
2021/01/11 04:09:10;;;;;;;47.42;19.45;;;-8.30;99.90;;;;;;5055213;28;20045;-74
2021/01/11 04:11:37;;;;;;;50.55;20.02;;;-8.30;99.90;;;;;;5048651;28;20128;-74
2021/01/11 04:14:04;;;;;;;49.25;21.67;;;-8.50;99.90;;;;;;5062143;28;20115;-74
2021/01/11 04:16:30;;;;;;;53.70;22.80;;;-8.60;99.90;;;;;;5055563;28;20128;-74
2021/01/11 04:18:57;;;;;;;49.65;20.90;;;-8.70;99.90;;;;;;5050693;28;20048;-75
2021/01/11 04:21:24;;;;;;;50.30;22.65;;;-8.70;99.90;;;;;;5066168;28;20148;-75
2021/01/11 04:23:51;;;;;;;52.83;23.30;;;-8.80;99.90;;;;;;5064174;28;20074;-74
2021/01/11 04:26:18;;;;;;;53.67;22.98;;;-8.80;99.90;;;;;;5051572;28;20076;-75
2021/01/11 04:28:44;;;;;;;53.03;23.77;;;-8.80;99.90;;;;;;5064878;28;20059;-74
2021/01/11 04:31:11;;;;;;;56.88;25.60;;;-8.70;99.90;;;;;;5062823;28;20530;-74
2021/01/11 04:33:37;;;;;;;56.45;25.90;;;-8.70;99.90;;;;;;5065988;28;20044;-74
2021/01/11 04:36:04;;;;;;;54.97;24.38;;;-8.70;99.90;;;;;;5064840;28;20582;-78
2021/01/11 04:38:31;;;;;;;56.50;23.83;;;-8.70;99.90;;;;;;5065045;28;20329;-78
2021/01/11 04:41:01;;;;;;;46.55;21.48;;;-8.60;99.90;;;;;;5064987;28;20495;-77
2021/01/11 04:43:30;;;;;;;53.50;22.95;;;-8.60;99.90;;;;;;5058882;28;20072;-79
2021/01/11 04:45:58;;;;;;;48.80;22.55;;;-8.60;99.90;;;;;;5059581;28;20154;-78
2021/01/11 04:48:26;;;;;;;60.58;23.88;;;-8.70;99.90;;;;;;5065267;28;20040;-79
2021/01/11 04:50:53;;;;;;;49.53;21.70;;;-8.80;99.90;;;;;;5065588;28;20106;-79
2021/01/11 04:53:21;;;;;;;54.78;24.02;;;-8.80;99.90;;;;;;5064973;28;20049;-79
2021/01/11 04:55:47;;;;;;;51.97;22.83;;;-8.70;99.90;;;;;;5046351;28;20048;-78
2021/01/11 04:58:14;;;;;;;46.80;21.67;;;-8.70;99.90;;;;;;5050392;28;20542;-78
2021/01/11 05:00:42;;;;;;;43.90;19.85;;;-8.70;99.90;;;;;;5058108;28;20075;-78
2021/01/11 05:03:10;;;;;;;56.92;22.65;;;-8.80;99.90;;;;;;5065096;28;20054;-79
2021/01/11 05:05:39;;;;;;;48.15;21.13;;;-8.80;99.90;;;;;;5064850;28;20048;-78
2021/01/11 05:08:06;;;;;;;52.63;21.17;;;-8.70;99.90;;;;;;5063868;28;20076;-79
2021/01/11 05:10:34;;;;;;;53.85;22.33;;;-8.70;99.90;;;;;;5058368;28;20590;-80
2021/01/11 05:13:06;;;;;;;52.65;22.73;;;-8.80;99.90;;;;;;5064989;28;20115;-74
2021/01/11 05:15:34;;;;;;;54.15;23.00;;;-8.80;99.90;;;;;;5060551;28;20397;-75
2021/01/11 05:18:01;;;;;;;47.67;20.88;;;-9.00;99.90;;;;;;5057744;28;20506;-76
2021/01/11 05:20:33;;;;;;;48.97;21.58;;;-9.10;99.90;;;;;;5052233;28;20127;-75
2021/01/11 05:23:08;;;;;;;49.65;22.13;;;-9.10;99.90;;;;;;5042261;28;20056;-75
2021/01/11 05:25:39;;;;;;;56.28;23.05;;;-9.20;99.90;;;;;;5050254;28;20136;-75
2021/01/11 05:28:17;;;;;;;48.88;21.67;;;-9.30;99.90;;;;;;5054237;28;20044;-75
2021/01/11 05:30:45;;;;;;;44.30;21.33;;;-9.40;99.90;;;;;;5060954;28;20049;-76
2021/01/11 05:33:23;;;;;;;46.10;21.95;;;-9.40;99.90;;;;;;5060988;28;20076;-77
2021/01/11 05:36:07;;;;;;;50.40;22.70;;;-9.30;99.90;;;;;;5060254;28;20067;-75
2021/01/11 05:38:45;;;;;;;;;;;-9.30;99.90;;;;;;5059461;28;20045;-74
2021/01/11 05:41:23;;;;;;;53.55;21.63;;;-9.40;99.90;;;;;;5062796;28;19959;-74
2021/01/11 05:44:12;;;;;;;50.42;21.77;;;-9.30;99.90;;;;;;5061561;28;20109;-74
2021/01/11 05:46:40;;;;;;;49.88;22.15;;;-9.40;99.90;;;;;;5042859;28;20436;-74
2021/01/11 05:49:09;;;;;;;57.08;24.35;;;-9.30;99.90;;;;;;5062813;28;20130;-74
2021/01/11 05:51:37;;;;;;;53.10;23.40;;;-9.30;99.90;;;;;;5053984;28;20060;-73
2021/01/11 05:54:06;;;;;;;57.85;23.90;;;-9.20;99.90;;;;;;5055888;28;20495;-77
2021/01/11 05:56:55;;;;;;;51.30;23.30;;;-9.20;99.90;;;;;;5046693;28;20049;-74
2021/01/11 05:59:22;;;;;;;50.45;21.65;;;-9.20;99.90;;;;;;5059455;28;20049;-75
2021/01/11 06:01:49;;;;;;;49.78;21.55;;;-9.20;99.90;;;;;;5058754;28;20456;-75
2021/01/11 06:04:16;;;;;;;56.13;23.88;;;-9.30;99.90;;;;;;5058916;28;20037;-75
2021/01/11 06:06:42;;;;;;;53.00;22.40;;;-9.30;99.90;;;;;;5044886;28;20064;-76
2021/01/11 06:09:09;;;;;;;55.47;23.58;;;-9.30;99.90;;;;;;5046959;28;20632;-76
2021/01/11 06:11:41;;;;;;;54.05;23.90;;;-9.30;99.90;;;;;;5047052;28;20097;-75
2021/01/11 06:14:08;;;;;;;53.78;24.02;;;-9.30;99.90;;;;;;5056243;28;20041;-75
2021/01/11 06:16:35;;;;;;;58.22;23.40;;;-9.20;99.90;;;;;;5044549;28;20037;-74
2021/01/11 06:19:03;;;;;;;64.00;25.17;;;-9.10;99.90;;;;;;5056954;28;20045;-74
2021/01/11 06:21:29;;;;;;;50.63;23.52;;;-9.10;99.90;;;;;;5063016;28;20382;-75
2021/01/11 06:24:35;;;;;;;58.05;22.95;;;-9.20;99.90;;;;;;5063902;28;20041;-74
2021/01/11 06:27:15;;;;;;;50.80;22.13;;;-9.20;99.90;;;;;;5020922;28;20053;-75
2021/01/11 06:29:48;;;;;;;51.35;22.50;;;-9.20;99.90;;;;;;5051643;28;20461;-75
2021/01/11 06:32:21;;;;;;;51.75;22.48;;;-9.30;99.90;;;;;;5063756;28;20080;-74
2021/01/11 06:34:48;;;;;;;56.63;22.70;;;-9.40;99.90;;;;;;5049635;28;20040;-74
2021/01/11 06:37:22;;;;;;;54.95;23.23;;;-9.40;99.90;;;;;;5062937;28;20077;-75
2021/01/11 06:39:54;;;;;;;58.80;23.45;;;-9.30;99.90;;;;;;5048980;28;20120;-75
2021/01/11 06:42:20;;;;;;;52.67;23.67;;;-9.20;99.90;;;;;;5054386;28;20049;-76
2021/01/11 06:44:48;;;;;;;52.33;24.92;;;-9.10;99.90;;;;;;5064378;28;20055;-75
2021/01/11 06:47:31;;;;;;;60.58;25.83;;;-9.20;99.90;;;;;;5043005;28;20063;-75
2021/01/11 06:50:08;;;;;;;55.28;24.15;;;-9.20;99.90;;;;;;5058934;28;20052;-75
2021/01/11 06:52:37;;;;;;;59.70;23.75;;;-9.30;99.90;;;;;;5055647;28;20130;-75
2021/01/11 06:55:14;;;;;;;61.47;26.58;;;-9.30;99.90;;;;;;5059201;28;20045;-76
2021/01/11 06:57:44;;;;;;;59.47;25.30;;;-9.30;99.90;;;;;;5057403;28;20049;-75
2021/01/11 07:00:11;;;;;;;61.17;25.67;;;-9.30;99.90;;;;;;5064125;28;20106;-75
2021/01/11 07:02:42;;;;;;;56.85;21.98;;;-9.20;99.90;;;;;;5063435;28;20475;-75
2021/01/11 07:05:38;;;;;;;59.15;24.13;;;-9.20;99.90;;;;;;5048725;28;20102;-75
2021/01/11 07:08:12;;;;;;;52.42;22.25;;;-9.10;99.90;;;;;;5058070;28;20460;-74
2021/01/11 07:10:43;;;;;;;58.25;25.55;;;-9.20;99.90;;;;;;5057594;28;20073;-74
2021/01/11 07:13:19;;;;;;;59.25;24.17;;;-9.20;99.90;;;;;;5057422;28;20051;-74
2021/01/11 07:16:06;;;;;;;49.50;22.15;;;-9.20;99.90;;;;;;5066620;28;20048;-75
2021/01/11 07:18:38;;;;;;;65.63;26.88;;;-9.30;99.90;;;;;;5061473;28;20131;-76
2021/01/11 07:21:26;;;;;;;61.65;25.48;;;-9.30;99.90;;;;;;5067645;28;20051;-75
2021/01/11 07:23:59;;;;;;;61.70;26.13;;;-9.30;99.90;;;;;;5065918;28;20052;-76
2021/01/11 07:26:29;;;;;;;;;;;-9.30;99.90;;;;;;5038368;28;20471;-75
2021/01/11 07:29:16;;;;;;;62.42;26.00;;;-9.20;99.90;;;;;;5047384;28;20633;-75
2021/01/11 07:31:45;;;;;;;63.78;26.92;;;-9.00;99.90;;;;;;5057436;28;20056;-75
2021/01/11 07:34:17;;;;;;;64.13;29.13;;;-9.00;99.90;;;;;;5049179;28;20094;-75
2021/01/11 07:36:49;;;;;;;73.97;30.08;;;-8.80;99.90;;;;;;5050297;28;20045;-76
2021/01/11 07:39:28;;;;;;;76.18;31.73;;;-8.90;99.90;;;;;;5064818;28;20040;-75
2021/01/11 07:42:06;;;;;;;66.65;30.83;;;-8.90;99.90;;;;;;5055418;28;20052;-75
2021/01/11 07:44:34;;;;;;;71.55;29.30;;;-8.90;99.90;;;;;;5066744;28;20044;-75
2021/01/11 07:47:12;;;;;;;78.68;32.22;;;-8.80;99.90;;;;;;5064909;28;20140;-75
2021/01/11 07:49:43;;;;;;;75.25;30.02;;;-8.60;99.90;;;;;;5051397;28;20099;-75
2021/01/11 07:52:11;;;;;;;72.68;31.80;;;-8.50;99.90;;;;;;5065437;28;20062;-75
2021/01/11 07:54:40;;;;;;;78.07;33.85;;;-8.40;99.90;;;;;;5059761;28;20051;-75
2021/01/11 07:57:15;;;;;;;68.57;30.95;;;-8.30;99.90;;;;;;5054704;28;20044;-74
2021/01/11 07:59:42;;;;;;;72.68;31.02;;;-8.10;99.90;;;;;;5066790;28;20132;-75
2021/01/11 08:02:11;;;;;;;76.45;32.17;;;-8.00;99.90;;;;;;5048325;28;20343;-75
2021/01/11 08:05:10;;;;;;;78.00;32.33;;;-8.00;99.90;;;;;;5048725;28;20102;-76
2021/01/11 08:07:50;;;;;;;74.78;31.33;;;-7.90;99.90;;;;;;5064986;28;20534;-75
2021/01/11 08:10:28;;;;;;;70.00;30.58;;;-7.80;99.90;;;;;;5049999;28;20050;-75
2021/01/11 08:13:07;;;;;;;66.97;30.30;;;-7.70;99.90;;;;;;5066446;28;20457;-73
2021/01/11 08:15:46;;;;;;;65.53;29.33;;;-7.50;99.90;;;;;;5066340;28;20045;-74
2021/01/11 08:18:15;;;;;;;62.95;29.83;;;-7.30;99.90;;;;;;5041702;28;20044;-73
2021/01/11 08:20:54;;;;;;;68.63;31.13;;;-7.20;99.90;;;;;;5063636;28;20090;-77
2021/01/11 08:23:27;;;;;;;66.88;31.38;;;-6.90;99.90;;;;;;5057557;28;20213;-75
2021/01/11 08:26:19;;;;;;;77.90;34.47;;;-6.60;99.90;;;;;;5054048;28;20132;-74
2021/01/11 08:29:00;;;;;;;73.57;32.78;;;-6.40;99.90;;;;;;5029146;28;20572;-76
2021/01/11 08:31:37;;;;;;;66.97;29.85;;;-6.40;99.90;;;;;;5066882;28;20036;-75
2021/01/11 08:34:06;;;;;;;61.53;30.02;;;-6.50;99.90;;;;;;5064905;28;20072;-75
2021/01/11 08:36:42;;;;;;;64.75;29.92;;;-6.40;99.90;;;;;;5051750;28;20059;-76
2021/01/11 08:39:16;;;;;;;65.93;29.92;;;-6.20;99.90;;;;;;5030727;28;20526;-76
2021/01/11 08:41:53;;;;;;;67.10;30.17;;;-6.20;99.90;;;;;;5047995;28;20474;-76
2021/01/11 08:44:24;;;;;;;66.85;31.25;;;-5.90;99.90;;;;;;5063864;28;20115;-75
2021/01/11 08:47:00;;;;;;;63.20;29.63;;;-5.80;99.90;;;;;;5063816;28;20121;-75
2021/01/11 08:49:34;;;;;;;64.95;29.70;;;-5.80;99.90;;;;;;5058781;28;20089;-75
2021/01/11 08:52:07;;;;;;;61.83;30.08;;;-5.70;99.90;;;;;;5052740;28;20144;-77
2021/01/11 08:54:35;;;;;;;65.85;31.25;;;-5.40;99.90;;;;;;5063690;28;20068;-76
2021/01/11 08:57:14;;;;;;;61.30;29.00;;;-5.10;99.90;;;;;;5053420;28;20045;-76
2021/01/11 08:59:51;;;;;;;63.53;31.42;;;-4.70;99.90;;;;;;5060707;28;20052;-75
2021/01/11 09:02:28;;;;;;;65.97;31.77;;;-4.50;99.90;;;;;;5044853;28;20097;-76
2021/01/11 09:05:22;;;;;;;65.18;32.13;;;-4.40;99.90;;;;;;5048234;28;20056;-76
2021/01/11 09:08:12;;;;;;;63.20;30.50;;;-4.40;99.90;;;;;;5065198;28;20052;-76
2021/01/11 09:10:43;;;;;;;63.63;30.08;;;-4.40;99.90;;;;;;5057181;28;20045;-76
2021/01/11 09:13:29;;;;;;;52.58;27.23;;;-4.40;99.90;;;;;;5064726;28;20480;-75
2021/01/11 09:16:12;;;;;;;56.03;28.05;;;-4.30;99.90;;;;;;5047368;28;20110;-76
2021/01/11 09:19:13;;;;;;;60.67;29.23;;;-4.30;99.90;;;;;;5050621;28;20140;-75
2021/01/11 09:22:25;;;;;;;53.50;27.23;;;-4.20;99.90;;;;;;5045566;28;20132;-75
2021/01/11 09:25:35;;;;;;;53.92;27.05;;;-4.20;99.90;;;;;;5039117;28;20073;-74
2021/01/11 09:28:18;;;;;;;51.38;25.67;;;-4.00;99.90;;;;;;5050423;28;20379;-75
2021/01/11 09:30:51;;;;;;;49.92;24.92;;;-3.90;99.90;;;;;;5049079;28;20071;-75
2021/01/11 09:38:15;;;;;;;57.60;26.20;;;-3.50;99.90;;;;;;5037830;28;20450;-74
2021/01/11 09:41:57;;;;;;;50.28;25.65;;;-2.60;99.90;;;;;;5057464;28;20039;-74
2021/01/11 09:49:02;;;;;;;117.72;27.25;;;1.30;99.90;;;;;;5051593;28;20521;-75
2021/01/11 09:51:56;;;;;;;38.28;22.00;;;2.90;99.90;;;;;;5050006;28;20107;-75
2021/01/11 09:55:31;;;;;;;38.10;21.13;;;3.10;95.50;;;;;;5011591;28;20684;-74
2021/01/11 10:02:44;;;;;;;30.02;19.73;;;4.40;87.70;;;;;;4962352;28;20560;-75
2021/01/11 10:05:56;;;;;;;28.20;18.70;;;4.70;76.00;;;;;;4969510;28;20042;-76
2021/01/11 10:09:09;;;;;;;31.65;19.98;;;4.90;75.10;;;;;;4977404;28;20539;-75
2021/01/11 10:12:43;;;;;;;26.65;16.67;;;5.30;74.50;;;;;;4958159;28;20530;-75
2021/01/11 10:16:12;;;;;;;25.38;15.75;;;5.30;68.20;;;;;;4986437;28;20049;-75
2021/01/11 10:19:42;;;;;;;23.50;14.65;;;5.90;67.10;;;;;;4897239;29;20152;-75
2021/01/11 10:22:50;;;;;;;21.05;14.57;;;5.40;66.40;;;;;;4906102;29;20056;-75
2021/01/11 10:26:01;;;;;;;22.05;15.25;;;6.00;66.10;;;;;;4887387;29;20064;-73
2021/01/11 10:29:18;;;;;;;21.10;14.80;;;6.50;62.40;;;;;;4849124;29;20057;-75
2021/01/11 10:32:33;;;;;;;22.48;14.95;;;6.70;61.00;;;;;;4850213;29;20117;-74
2021/01/11 10:35:35;;;;;;;20.73;14.20;;;6.90;60.90;;;;;;4799824;29;20130;-74
2021/01/11 10:38:49;;;;;;;23.10;14.57;;;6.40;60.20;;;;;;4859430;29;20052;-73
2021/01/11 10:42:32;;;;;;;;;;;;;;;;;;;;;
2021/01/11 10:45:52;;;;;;;;;;;;;;;;;;;;;
2021/01/11 10:48:51;;;;;;;20.85;13.45;;;4.70;66.50;;;;;;4877494;29;20061;-76
2021/01/11 10:52:09;;;;;;;19.40;13.23;;;5.30;64.20;;;;;;4847796;27;7158302;-75
2021/01/11 10:55:26;;;;;;;18.10;13.02;;;5.70;63.40;;;;;;5078938;28;20102;-74
2021/01/11 10:58:20;;;;;;;19.38;13.95;;;5.40;62.70;;;;;;5081114;28;20140;-75
2021/01/11 11:01:36;;;;;;;23.13;14.52;;;4.90;64.10;;;;;;5077762;28;20076;-76
2021/01/11 11:04:43;;;;;;;20.60;13.25;;;4.90;64.80;;;;;;5079131;28;20051;-75
2021/01/11 11:07:53;;;;;;;23.60;13.85;;;5.10;63.90;;;;;;5081976;28;20067;-76
2021/01/11 11:11:13;;;;;;;21.97;14.57;;;4.90;65.40;;;;;;5068308;28;20468;-75
2021/01/11 11:14:09;;;;;;;21.75;13.65;;;5.50;63.30;;;;;;5062288;28;20316;-75
2021/01/11 11:16:51;;;;;;;16.85;12.15;;;5.90;61.80;;;;;;5062128;28;20056;-75
2021/01/11 11:20:43;;;;;;;;;;;;;;;;;;;;;
2021/01/11 11:23:37;;;;;;;19.65;13.30;;;6.40;59.10;;;;;;5080945;28;20117;-75
2021/01/11 11:26:15;;;;;;;23.42;13.15;;;4.80;60.50;;;;;;5077018;28;20139;-75
2021/01/11 11:29:07;;;;;;;20.17;13.57;;;3.70;65.60;;;;;;5078596;28;20044;-75
2021/01/11 11:32:03;;;;;;;22.67;14.40;;;2.80;69.80;;;;;;5075409;28;20059;-74
2021/01/11 11:35:19;;;;;;;21.25;14.07;;;3.10;73.20;;;;;;5082373;28;20126;-74
2021/01/11 11:38:35;;;;;;;21.83;14.30;;;2.80;73.30;;;;;;5081206;28;20095;-74
2021/01/11 11:41:45;;;;;;;21.17;13.45;;;2.50;75.80;;;;;;5064651;28;20332;-74
2021/01/11 11:44:18;;;;;;;16.07;10.97;;;2.20;78.50;;;;;;5065868;28;20048;-75
2021/01/11 11:46:46;;;;;;;21.63;13.85;;;3.00;76.40;;;;;;5081464;28;20516;-74
2021/01/11 11:49:36;;;;;;;24.08;13.95;;;4.70;69.80;;;;;;5078461;28;20076;-74
2021/01/11 11:52:23;;;;;;;21.25;13.48;;;6.20;64.90;;;;;;5060023;28;20558;-75
2021/01/11 11:55:14;;;;;;;21.30;13.70;;;7.40;59.10;;;;;;5072125;28;20584;-75
2021/01/11 11:58:05;;;;;;;19.17;13.05;;;7.90;57.50;;;;;;5079683;28;20044;-74
2021/01/11 12:00:44;;;;;;;18.60;12.05;;;7.50;56.40;;;;;;5067457;28;20144;-75
2021/01/11 12:03:31;;;;;;;16.50;11.52;;;6.90;57.30;;;;;;5066232;28;20051;-74
2021/01/11 12:06:27;;;;;;;19.90;13.20;;;7.60;56.70;;;;;;5064749;28;20044;-75
2021/01/11 12:09:17;;;;;;;17.85;12.55;;;8.10;56.00;;;;;;5051200;28;20472;-76
2021/01/11 12:12:09;;;;;;;19.00;13.07;;;8.70;53.40;;;;;;5040568;28;20633;-76
2021/01/11 12:14:53;;;;;;;17.13;11.93;;;9.60;52.50;;;;;;5047190;28;20045;-75
2021/01/11 12:17:36;;;;;;;16.00;12.60;;;10.30;50.30;;;;;;5046706;28;20601;-76
2021/01/11 12:20:13;;;;;;;18.20;12.50;;;10.40;47.70;;;;;;5047093;28;20566;-76
2021/01/11 12:22:50;;;;;;;17.63;12.50;;;10.50;48.30;;;;;;5047739;28;20087;-76
2021/01/11 12:25:42;;;;;;;16.70;12.48;;;10.80;47.40;;;;;;5045526;28;20048;-76
2021/01/11 12:28:25;;;;;;;18.02;12.85;;;11.50;47.50;;;;;;5044315;28;20049;-76
2021/01/11 12:31:06;;;;;;;16.27;12.32;;;12.20;44.70;;;;;;5044943;28;20127;-75
2021/01/11 12:33:36;;;;;;;16.77;12.63;;;11.30;44.10;;;;;;5046804;28;20128;-77
2021/01/11 12:36:24;;;;;;;17.17;12.95;;;9.90;47.00;;;;;;5046579;28;21988;-76
2021/01/11 12:39:17;;;;;;;15.07;11.75;;;9.30;49.60;;;;;;5046396;28;20084;-76
2021/01/11 12:41:47;;;;;;;16.83;12.07;;;9.30;48.80;;;;;;5036241;28;20053;-75
2021/01/11 12:44:15;;;;;;;19.08;13.35;;;8.90;48.80;;;;;;5046901;28;20656;-74
2021/01/11 12:46:59;;;;;;;23.13;14.65;;;8.30;51.10;;;;;;5047249;28;20049;-76
2021/01/11 12:50:01;;;;;;;22.85;14.43;;;8.10;51.40;;;;;;5044896;28;20487;-77
2021/01/11 12:53:15;;;;;;;17.95;12.82;;;8.90;50.30;;;;;;5044271;28;20141;-74
2021/01/11 12:56:27;;;;;;;19.98;13.10;;;9.10;49.90;;;;;;5044426;28;20494;-77
2021/01/11 12:59:33;;;;;;;19.50;12.52;;;8.70;49.60;;;;;;5038434;28;20113;-76
2021/01/11 13:02:25;;;;;;;20.27;13.70;;;9.50;49.30;;;;;;5044764;28;20041;-76
2021/01/11 13:05:23;;;;;;;19.42;13.75;;;8.90;49.40;;;;;;5046656;28;20048;-76
2021/01/11 13:08:33;;;;;;;19.55;14.20;;;8.50;50.10;;;;;;5046993;28;20107;-76
2021/01/11 13:15:36;;;;;;;;;;;;;;;;;;;;;
2021/01/11 13:18:59;;;;;;;;;;;;;;;;;;;;;
2021/01/11 13:22:28;;;;;;;20.10;14.25;;;9.50;48.20;;;;;;5020736;28;20048;-75
2021/01/11 13:25:49;;;;;;;;;;;;;;;;;;;;;
2021/01/11 13:28:43;;;;;;;21.17;14.38;;;10.30;47.10;;;;;;5038052;28;20039;-77
2021/01/11 13:32:29;;;;;;;22.60;14.63;;;9.70;47.60;;;;;;4959318;28;20130;-76
2021/01/11 13:39:04;;;;;;;19.95;13.50;;;10.30;47.10;;;;;;5012712;28;20088;-76
2021/01/11 13:42:25;;;;;;;23.48;14.20;;;10.60;46.70;;;;;;4986921;28;20054;-77
2021/01/11 13:50:09;;;;;;;19.92;14.57;;;9.50;47.90;;;;;;4902986;29;20129;-75
2021/01/11 13:53:00;;;;;;;;;;;;;;;;;;;;;
2021/01/11 13:56:10;;;;;;;23.30;15.15;;;7.80;51.00;;;;;;4822644;29;20054;-75
2021/01/11 14:03:25;;;;;;;23.83;14.82;;;8.20;52.10;;;;;;4775029;30;20642;-75
2021/01/11 14:06:55;;;;;;;24.15;14.52;;;8.60;49.90;;;;;;4555959;27;15100362;-76
2021/01/11 14:09:56;;;;;;;;;;;;;;;;;;;;;
2021/01/11 14:13:02;;;;;;;21.80;13.75;;;8.80;48.40;;;;;;5028354;28;20041;-74
2021/01/11 14:16:22;;;;;;;;;;;;;;;;;;;;;